Time;durP1;ratioP1;P1;durP2;ratioP2;P2;SDS_P1;SDS_P2;PMS_P1;PMS_P2;Temp;Humidity;BMP_temperature;BMP_pressure;BME280_temperature;BME280_humidity;BME280_pressure;Samples;Min_cycle;Max_cycle;Signal;HPM_P1;HPM_P2
2022/04/14 00:01:59;;;;;;;15.63;8.60;;;;;;;11.11;46.78;100345.41;4482556;32;33974;-74
2022/04/14 00:04:27;;;;;;;14.63;7.78;;;;;;;10.94;47.12;100350.34;4483614;32;33112;-74
2022/04/14 00:06:55;;;;;;;11.35;7.35;;;;;;;10.82;47.79;100361.00;4483318;32;33774;-74
2022/04/14 00:09:23;;;;;;;14.55;8.60;;;;;;;10.89;47.80;100359.16;4484629;32;34537;-75
2022/04/14 00:11:51;;;;;;;15.55;8.63;;;;;;;11.00;47.32;100345.97;4483244;32;34199;-74
2022/04/14 00:14:18;;;;;;;13.75;8.00;;;;;;;10.81;47.82;100350.19;4484108;32;33486;-74
2022/04/14 00:16:46;;;;;;;16.85;8.57;;;;;;;10.88;47.57;100348.38;4483049;32;33531;-74
2022/04/14 00:19:14;;;;;;;13.07;8.02;;;;;;;10.80;47.52;100343.00;4483324;32;34350;-74
2022/04/14 00:21:44;;;;;;;15.10;8.40;;;;;;;10.65;47.83;100343.03;4470413;32;33946;-74
2022/04/14 00:24:12;;;;;;;16.30;7.93;;;;;;;10.68;47.76;100339.91;4484474;32;34016;-74
2022/04/14 00:26:39;;;;;;;12.32;7.20;;;;;;;10.75;47.74;100337.25;4470065;32;33658;-74
2022/04/14 00:29:07;;;;;;;12.43;7.68;;;;;;;10.77;47.69;100344.25;4486138;32;34098;-74
2022/04/14 00:31:34;;;;;;;14.18;7.10;;;;;;;10.56;48.18;100346.94;4485586;32;34062;-74
2022/04/14 00:34:02;;;;;;;13.10;7.57;;;;;;;10.35;49.04;100346.91;4485760;32;33304;-74
2022/04/14 00:36:33;;;;;;;14.20;7.90;;;;;;;10.43;48.52;100339.41;4485484;32;33436;-74
2022/04/14 00:39:00;;;;;;;12.75;7.55;;;;;;;10.60;48.25;100342.78;4486739;32;34501;-74
2022/04/14 00:41:28;;;;;;;15.98;7.50;;;;;;;10.43;48.56;100344.88;4485437;32;33627;-74
2022/04/14 00:43:55;;;;;;;13.93;7.50;;;;;;;10.39;48.65;100348.25;4472572;32;33230;-74
2022/04/14 00:46:23;;;;;;;13.38;7.65;;;;;;;10.11;49.48;100331.59;4485430;32;34087;-74
2022/04/14 00:48:52;;;;;;;11.95;7.07;;;;;;;10.33;49.07;100349.00;4486830;32;35327;-74
2022/04/14 00:51:19;;;;;;;11.95;7.78;;;;;;;10.39;48.47;100348.25;4485440;32;33888;-74
2022/04/14 00:53:47;;;;;;;13.25;7.50;;;;;;;10.47;48.04;100345.34;4472414;32;31794;-74
2022/04/14 00:56:15;;;;;;;12.95;6.85;;;;;;;10.35;48.33;100336.78;4486887;32;34177;-74
2022/04/14 00:58:43;;;;;;;15.23;7.22;;;;;;;10.36;48.16;100332.16;4485390;32;35207;-74
2022/04/14 01:01:12;;;;;;;12.23;7.00;;;;;;;10.13;48.89;100335.84;4484657;32;34729;-74
2022/04/14 01:03:42;;;;;;;13.77;6.75;;;;;;;10.20;48.96;100339.56;4486421;32;33579;-74
2022/04/14 01:06:14;;;;;;;16.23;7.37;;;;;;;10.05;49.35;100351.53;4472391;32;33299;-74
2022/04/14 01:09:16;;;;;;;15.07;6.65;;;;;;;10.11;49.08;100337.06;4472330;32;33999;-74
2022/04/14 01:11:30;;;;;;;15.10;7.32;;;;;;;10.11;49.00;100339.81;4474321;32;33194;-74
2022/04/14 01:13:58;;;;;;;12.88;7.05;;;;;;;10.10;48.99;100333.47;4485213;32;33004;-74
2022/04/14 01:16:25;;;;;;;12.25;7.12;;;;;;;9.84;49.88;100333.94;4486320;32;34195;-74
2022/04/14 01:18:53;;;;;;;11.80;6.62;;;;;;;10.14;49.04;100339.44;4459422;32;32804;-74
2022/04/14 01:21:23;;;;;;;14.05;7.45;;;;;;;10.20;48.99;100339.56;4485186;32;33811;-74
2022/04/14 01:23:51;;;;;;;12.77;6.28;;;;;;;9.98;49.46;100337.72;4472208;32;33275;-74
2022/04/14 01:26:19;;;;;;;12.10;6.87;;;;;;;10.08;49.14;100332.81;4486356;32;33722;-74
2022/04/14 01:28:46;;;;;;;13.77;6.53;;;;;;;10.13;48.92;100333.09;4472287;32;34371;-74
2022/04/14 01:31:14;;;;;;;13.02;6.62;;;;;;;9.70;49.89;100331.22;4485467;32;33595;-74
2022/04/14 01:33:41;;;;;;;11.02;6.35;;;;;;;9.73;50.08;100331.69;4472290;32;31745;-74
2022/04/14 01:36:09;;;;;;;13.32;6.62;;;;;;;9.91;49.70;100334.88;4485114;32;33727;-74
2022/04/14 01:38:38;;;;;;;10.73;5.93;;;;;;;9.86;49.48;100322.78;4485181;32;34156;-74
2022/04/14 01:41:05;;;;;;;11.73;6.68;;;;;;;9.91;49.37;100339.53;4484495;32;33772;-74
2022/04/14 01:43:33;;;;;;;12.68;6.45;;;;;;;9.82;49.45;100340.66;4485177;32;34127;-74
2022/04/14 01:46:03;;;;;;;12.55;6.43;;;;;;;9.73;49.52;100337.19;4486260;32;33621;-74
2022/04/14 01:48:31;;;;;;;11.80;6.10;;;;;;;9.69;49.66;100346.81;4486270;32;35164;-74
2022/04/14 01:50:58;;;;;;;11.98;6.37;;;;;;;9.65;49.96;100340.00;4486197;32;34264;-74
2022/04/14 01:53:26;;;;;;;11.60;5.85;;;;;;;9.77;49.82;100345.84;4484922;32;34437;-74
2022/04/14 01:55:53;;;;;;;11.77;6.50;;;;;;;9.86;49.53;100347.47;4484961;32;34488;-74
2022/04/14 01:58:21;;;;;;;11.45;6.50;;;;;;;9.86;49.51;100342.84;4459003;32;33002;-74
2022/04/14 02:00:48;;;;;;;11.20;6.40;;;;;;;9.69;49.88;100340.47;4472048;32;32509;-74
2022/04/14 02:03:16;;;;;;;12.37;6.65;;;;;;;9.74;49.71;100338.03;4486058;32;33946;-73
2022/04/14 02:05:44;;;;;;;13.05;6.62;;;;;;;9.61;50.02;100337.81;4484842;32;33735;-74
2022/04/14 02:08:12;;;;;;;12.40;6.45;;;;;;;9.62;49.94;100345.00;4484682;32;35132;-74
2022/04/14 02:10:39;;;;;;;12.30;6.57;;;;;;;9.60;50.19;100336.13;4486138;32;34015;-74
2022/04/14 02:13:07;;;;;;;13.60;6.37;;;;;;;9.55;50.13;100340.28;4485070;32;33379;-73
2022/04/14 02:15:34;;;;;;;12.93;6.78;;;;;;;9.41;50.43;100351.19;4484810;32;33251;-74
2022/04/14 02:18:02;;;;;;;14.13;7.10;;;;;;;9.51;50.27;100344.41;4486020;32;34904;-74
2022/04/14 02:20:30;;;;;;;10.80;5.85;;;;;;;9.58;50.08;100342.63;4471826;32;34758;-74
2022/04/14 02:22:57;;;;;;;12.43;6.25;;;;;;;9.53;50.17;100345.09;4484724;32;33572;-74
2022/04/14 02:25:25;;;;;;;13.02;6.57;;;;;;;9.52;50.13;100346.13;4484660;32;32395;-74
2022/04/14 02:27:53;;;;;;;11.02;6.43;;;;;;;9.44;50.23;100346.19;4484968;32;35112;-74
2022/04/14 02:30:21;;;;;;;11.75;6.55;;;;;;;9.39;50.23;100347.78;4485959;32;33914;-74
2022/04/14 02:32:48;;;;;;;12.30;6.20;;;;;;;9.26;50.54;100348.41;4484809;32;33314;-74
2022/04/14 02:35:16;;;;;;;14.60;6.93;;;;;;;9.01;51.17;100349.66;4484696;32;33700;-74
2022/04/14 02:37:43;;;;;;;11.98;6.00;;;;;;;8.96;51.44;100352.09;4484671;32;34450;-74
2022/04/14 02:40:11;;;;;;;12.55;6.87;;;;;;;9.04;51.32;100355.63;4484668;32;34155;-74
2022/04/14 02:42:40;;;;;;;12.65;6.40;;;;;;;9.05;51.35;100348.28;4484513;32;34237;-73
2022/04/14 02:45:08;;;;;;;9.63;5.15;;;;;;;9.16;51.03;100354.12;4484630;32;34455;-75
2022/04/14 02:47:36;;;;;;;11.12;6.47;;;;;;;9.30;55.46;100349.75;4471499;32;34516;-75
2022/04/14 02:50:04;;;;;;;11.12;6.37;;;;;;;9.47;53.92;100345.81;4458014;32;32220;-75
2022/04/14 02:52:32;;;;;;;11.73;7.07;;;;;;;9.53;51.18;100353.31;4485162;31;33895;-75
2022/04/14 02:54:59;;;;;;;12.40;7.20;;;;;;;9.44;50.40;100350.81;4484806;31;32200;-75
2022/04/14 02:57:28;;;;;;;12.68;6.62;;;;;;;9.42;50.01;100345.53;4492172;31;34172;-75
2022/04/14 02:59:56;;;;;;;13.98;7.20;;;;;;;9.21;50.13;100339.91;4481640;31;34085;-75
2022/04/14 03:02:24;;;;;;;11.52;6.15;;;;;;;9.24;50.02;100343.13;4493184;31;33274;-75
2022/04/14 03:04:53;;;;;;;11.50;6.57;;;;;;;9.30;49.92;100338.78;4491984;31;34503;-75
2022/04/14 03:07:21;;;;;;;14.00;6.35;;;;;;;9.07;50.40;100344.31;4482501;31;34252;-75
2022/04/14 03:09:48;;;;;;;10.77;6.53;;;;;;;9.08;50.54;100343.28;4483370;31;34809;-75
2022/04/14 03:12:16;;;;;;;10.68;5.75;;;;;;;9.06;50.82;100347.25;4468503;32;33233;-75
2022/04/14 03:14:46;;;;;;;9.02;5.57;;;;;;;9.11;50.90;100348.38;4472238;31;33160;-75
2022/04/14 03:17:14;;;;;;;11.18;6.10;;;;;;;9.09;50.89;100346.88;4496432;31;34300;-75
2022/04/14 03:19:42;;;;;;;10.32;5.50;;;;;;;9.15;50.60;100351.59;4485203;31;34891;-75
2022/04/14 03:22:13;;;;;;;10.77;5.50;;;;;;;9.06;50.78;100344.50;4460342;31;31795;-75
2022/04/14 03:24:41;;;;;;;10.40;5.62;;;;;;;8.94;50.85;100345.97;4486718;31;33758;-75
2022/04/14 03:27:08;;;;;;;13.52;6.20;;;;;;;8.98;50.54;100341.81;4486772;31;33161;-75
2022/04/14 03:29:36;;;;;;;10.60;5.80;;;;;;;8.92;50.76;100348.87;4486831;31;34892;-75
2022/04/14 03:32:04;;;;;;;8.75;5.40;;;;;;;8.72;51.55;100336.69;4500820;31;33415;-75
2022/04/14 03:34:34;;;;;;;9.50;5.85;;;;;;;8.69;51.65;100343.38;4484982;31;33549;-75
2022/04/14 03:37:01;;;;;;;10.00;5.47;;;;;;;8.63;51.83;100348.72;4499101;31;34345;-75
2022/04/14 03:39:29;;;;;;;10.95;5.35;;;;;;;8.75;51.40;100345.41;4471626;31;32591;-75
2022/04/14 03:42:00;;;;;;;9.93;5.65;;;;;;;8.85;51.07;100350.62;4484874;31;33960;-75
2022/04/14 03:44:27;;;;;;;10.25;5.50;;;;;;;8.80;51.12;100355.81;4499186;31;34489;-75
2022/04/14 03:46:55;;;;;;;11.85;4.78;;;;;;;8.74;50.94;100351.06;4484652;31;34554;-75
2022/04/14 03:49:23;;;;;;;11.25;5.65;;;;;;;8.64;51.29;100356.75;4486293;31;33649;-75
2022/04/14 03:51:55;;;;;;;11.60;5.65;;;;;;;8.47;51.58;100356.00;4486603;31;33516;-74
2022/04/14 03:54:23;;;;;;;15.25;6.60;;;;;;;8.37;52.02;100357.25;4500717;31;33624;-74
2022/04/14 03:56:53;;;;;;;10.00;5.68;;;;;;;8.40;52.14;100362.37;4500631;31;34346;-74
2022/04/14 03:59:20;;;;;;;10.23;5.80;;;;;;;8.48;52.07;100363.16;4486521;31;34111;-74
2022/04/14 04:01:48;;;;;;;12.20;6.20;;;;;;;8.70;51.38;100366.97;4473707;31;33242;-74
2022/04/14 04:04:16;;;;;;;12.48;6.35;;;;;;;8.63;51.49;100360.53;4502560;31;33747;-74
2022/04/14 04:06:46;;;;;;;11.77;6.05;;;;;;;8.60;51.50;100363.63;4502582;31;35116;-74
2022/04/14 04:09:16;;;;;;;12.73;5.90;;;;;;;8.56;51.46;100360.38;4475510;31;32381;-74
2022/04/14 04:11:47;;;;;;;11.38;5.47;;;;;;;8.56;51.73;100365.00;4475917;31;33528;-74
2022/04/14 04:14:14;;;;;;;10.77;5.40;;;;;;;8.57;51.86;100366.72;4488273;31;34379;-74
2022/04/14 04:16:43;;;;;;;9.15;5.47;;;;;;;8.47;51.81;100357.88;4488319;31;32857;-74
2022/04/14 04:19:10;;;;;;;9.82;5.22;;;;;;;8.51;51.64;100365.53;4488515;31;34041;-74
2022/04/14 04:21:41;;;;;;;10.10;6.05;;;;;;;8.50;51.69;100362.97;4488404;31;33919;-74
2022/04/14 04:24:09;;;;;;;12.07;6.22;;;;;;;8.57;51.53;100370.28;4488458;31;34540;-74
2022/04/14 04:26:36;;;;;;;12.57;6.03;;;;;;;8.52;51.58;100364.50;4502306;31;35259;-74
2022/04/14 04:29:04;;;;;;;16.33;7.62;;;;;;;8.57;51.65;100366.72;4502514;31;34638;-74
2022/04/14 04:31:31;;;;;;;10.30;6.07;;;;;;;8.46;51.99;100359.75;4488115;31;33112;-73
2022/04/14 04:34:02;;;;;;;11.55;6.15;;;;;;;8.59;58.01;100372.84;4502656;31;33735;-74
2022/04/14 04:36:29;;;;;;;11.50;6.68;;;;;;;8.62;54.82;100369.75;4475319;31;34457;-74
2022/04/14 04:39:01;;;;;;;15.20;7.45;;;;;;;8.52;52.80;100369.13;4488083;31;32555;-74
2022/04/14 04:41:29;;;;;;;11.73;6.53;;;;;;;8.55;52.32;100369.63;4475472;31;31991;-74
2022/04/14 04:44:04;;;;;;;11.95;6.10;;;;;;;8.58;52.20;100374.75;4475117;31;32332;-73
2022/04/14 04:46:32;;;;;;;17.73;6.72;;;;;;;8.59;52.09;100376.44;4502353;31;35177;-73
2022/04/14 04:49:01;;;;;;;11.88;6.10;;;;;;;8.48;52.39;100378.72;4488313;31;34763;-73
2022/04/14 04:51:37;;;;;;;11.12;6.50;;;;;;;8.53;52.40;100381.78;4474947;31;32621;-74
2022/04/14 04:54:08;;;;;;;12.20;6.43;;;;;;;8.56;52.31;100385.00;4502039;31;33538;-74
2022/04/14 04:56:35;;;;;;;13.40;6.35;;;;;;;8.60;52.29;100382.75;4501585;31;34199;-74
2022/04/14 04:59:03;;;;;;;12.48;7.03;;;;;;;8.45;52.77;100390.88;4461721;31;32508;-74
2022/04/14 05:01:36;;;;;;;13.32;6.93;;;;;;;8.40;53.06;100393.31;4474867;31;31722;-74
2022/04/14 05:04:06;;;;;;;12.23;6.20;;;;;;;8.63;52.57;100390.63;4502139;31;34022;-74
2022/04/14 05:06:35;;;;;;;10.00;5.70;;;;;;;8.68;52.59;100393.66;4488234;31;34288;-74
2022/04/14 05:09:04;;;;;;;10.85;6.03;;;;;;;8.73;52.48;100399.47;4487440;31;33556;-74
2022/04/14 05:11:35;;;;;;;11.80;7.25;;;;;;;8.54;53.22;100402.63;4502352;31;33439;-72
2022/04/14 05:14:03;;;;;;;13.23;6.60;;;;;;;8.19;54.85;100396.63;4484363;31;33639;-73
2022/04/14 05:16:30;;;;;;;21.27;7.18;;;;;;;8.00;55.83;100404.34;4466263;32;32940;-72
2022/04/14 05:19:04;;;;;;;14.27;7.25;;;;;;;7.89;56.26;100402.84;4459065;32;33421;-72
2022/04/14 05:21:33;;;;;;;14.20;6.95;;;;;;;8.07;56.22;100399.91;4460122;32;33431;-73
2022/04/14 05:24:06;;;;;;;15.45;7.05;;;;;;;8.00;56.63;100404.34;4486361;32;34588;-72
2022/04/14 05:26:34;;;;;;;14.27;6.93;;;;;;;8.09;56.65;100411.50;4486309;32;34434;-72
2022/04/14 05:29:02;;;;;;;13.15;7.40;;;;;;;8.05;56.98;100410.16;4472020;32;32287;-73
2022/04/14 05:31:29;;;;;;;22.50;14.32;;;;;;;8.42;56.05;100402.19;4472117;32;31606;-72
2022/04/14 05:33:57;;;;;;;20.88;13.77;;;;;;;8.79;54.94;100406.09;4485783;32;33708;-73
2022/04/14 05:36:25;;;;;;;22.13;13.88;;;;;;;8.91;54.48;100412.88;4471831;32;34389;-72
2022/04/14 05:38:52;;;;;;;15.07;10.85;;;;;;;9.47;63.52;100419.81;4471774;32;33908;-72
2022/04/14 05:41:20;;;;;;;15.07;11.07;;;;;;;9.85;54.11;100406.06;4486053;32;33166;-72
2022/04/14 05:43:50;;;;;;;16.40;11.68;;;;;;;10.03;51.29;100409.31;4472163;32;33574;-73
2022/04/14 05:46:18;;;;;;;17.58;10.90;;;;;;;10.22;50.19;100411.53;4486130;32;35143;-73
2022/04/14 05:48:47;;;;;;;27.98;10.88;;;;;;;10.55;50.49;100416.59;4472220;32;34099;-71
2022/04/14 05:51:14;;;;;;;18.17;12.65;;;;;;;10.91;60.78;100415.78;4486260;32;34162;-72
2022/04/14 05:53:42;;;;;;;31.12;13.10;;;;;;;11.73;54.05;100410.66;4472262;32;33709;-72
2022/04/14 05:56:10;;;;;;;14.80;11.12;;;;;;;12.02;47.39;100405.00;4472032;32;34044;-73
2022/04/14 05:58:37;;;;;;;14.30;9.32;;;;;;;12.40;46.70;100401.81;4472075;32;33773;-73
2022/04/14 06:01:08;;;;;;;17.52;8.63;;;;;;;12.75;45.56;100397.97;4486217;32;34114;-72
2022/04/14 06:03:35;;;;;;;12.77;8.80;;;;;;;12.83;44.31;100394.19;4486132;32;33782;-72
2022/04/14 06:06:03;;;;;;;15.80;9.68;;;;;;;13.06;45.11;100396.56;4472134;32;34234;-72
2022/04/14 06:08:30;;;;;;;15.68;8.35;;;;;;;13.18;44.63;100403.22;4471841;32;33780;-72
2022/04/14 06:10:58;;;;;;;16.27;7.37;;;;;;;13.37;44.17;100394.13;4459066;32;32706;-72
2022/04/14 06:13:26;;;;;;;13.55;7.50;;;;;;;13.62;42.88;100390.78;4458976;32;32332;-73
2022/04/14 06:15:53;;;;;;;17.12;10.93;;;;;;;13.81;41.66;100384.38;4459087;32;33092;-73
2022/04/14 06:18:21;;;;;;;12.55;6.80;;;;;;;14.23;41.29;100385.81;4472037;32;34102;-73
2022/04/14 06:20:50;;;;;;;21.83;12.63;;;;;;;14.49;41.76;100398.72;4486143;32;33432;-72
2022/04/14 06:23:20;;;;;;;39.20;23.67;;;;;;;14.68;41.90;100391.44;4471855;32;33350;-73
2022/04/14 06:25:51;;;;;;;13.98;7.70;;;;;;;15.13;42.07;100393.09;4485146;32;35184;-72
2022/04/14 06:28:19;;;;;;;16.08;7.32;;;;;;;15.47;39.55;100390.97;4472582;32;33859;-73
2022/04/14 06:30:47;;;;;;;23.27;9.50;;;;;;;15.85;39.25;100388.12;4458952;32;31701;-73
2022/04/14 06:33:16;;;;;;;16.87;7.60;;;;;;;16.11;38.80;100382.34;4471952;32;33793;-72
2022/04/14 06:35:43;;;;;;;18.33;7.80;;;;;;;16.39;35.87;100372.66;4471908;32;35145;-73
2022/04/14 06:38:11;;;;;;;15.13;7.07;;;;;;;16.64;36.47;100379.00;4482233;31;33863;-73
2022/04/14 06:40:45;;;;;;;40.20;21.33;;;;;;;16.89;33.67;100378.91;4492005;31;34133;-73
2022/04/14 06:43:12;;;;;;;23.02;12.10;;;;;;;17.31;35.16;100379.78;4494091;31;33842;-73
2022/04/14 06:45:43;;;;;;;16.20;9.00;;;;;;;17.47;32.79;100382.97;4494835;31;34288;-72
2022/04/14 06:48:11;;;;;;;13.52;6.95;;;;;;;17.76;32.20;100373.75;4474304;31;33734;-73
2022/04/14 06:50:40;;;;;;;13.15;7.60;;;;;;;18.04;31.68;100376.69;4487481;31;34423;-73
2022/04/14 06:53:07;;;;;;;16.17;7.80;;;;;;;18.51;31.35;100378.56;4472732;31;32345;-73
2022/04/14 06:55:37;;;;;;;16.45;8.20;;;;;;;18.84;30.53;100372.37;4483970;32;35139;-73
2022/04/14 06:58:06;;;;;;;14.87;7.57;;;;;;;19.03;29.67;100380.25;4471919;32;32458;-73
2022/04/14 07:00:34;;;;;;;14.98;7.50;;;;;;;19.33;29.54;100374.44;4484579;32;33559;-73
2022/04/14 07:03:06;;;;;;;11.05;4.93;;;;;;;19.67;29.28;100380.06;4485619;32;34577;-73
2022/04/14 07:05:34;;;;;;;8.88;4.60;;;;;;;19.81;26.05;100369.44;4484382;32;32871;-73
2022/04/14 07:08:01;;;;;;;8.60;4.57;;;;;;;20.08;26.64;100367.69;4488574;31;33883;-73
2022/04/14 07:10:29;;;;;;;13.27;5.85;;;;;;;19.97;24.40;100371.41;4479450;31;34048;-73
2022/04/14 07:12:56;;;;;;;14.07;6.35;;;;;;;19.80;25.23;100368.59;4494494;31;33771;-73
2022/04/14 07:15:25;;;;;;;15.77;8.32;;;;;;;20.09;26.01;100371.31;4468069;32;32955;-72
2022/04/14 07:17:53;;;;;;;11.75;6.87;;;;;;;20.31;24.73;100367.44;4486022;31;32527;-73
2022/04/14 07:20:21;;;;;;;10.80;5.82;;;;;;;20.20;23.80;100370.34;4482683;31;31863;-73
2022/04/14 07:22:52;;;;;;;10.70;5.25;;;;;;;20.25;23.10;100371.25;4492940;31;33623;-73
2022/04/14 07:25:24;;;;;;;16.17;5.75;;;;;;;20.34;23.18;100363.31;4483020;31;34721;-73
2022/04/14 07:27:52;;;;;;;11.30;5.80;;;;;;;20.70;23.27;100367.47;4481369;32;34233;-73
2022/04/14 07:30:21;;;;;;;11.88;5.93;;;;;;;20.40;23.07;100359.53;4471144;32;32662;-73
2022/04/14 07:32:50;;;;;;;11.00;5.32;;;;;;;20.80;23.30;100367.56;4473703;31;34058;-72
2022/04/14 07:35:22;;;;;;;9.88;5.00;;;;;;;20.78;22.37;100366.16;4484189;31;34246;-73
2022/04/14 07:37:50;;;;;;;9.45;5.25;;;;;;;20.92;21.97;100362.69;4480069;31;33732;-72
2022/04/14 07:40:21;;;;;;;9.45;4.85;;;;;;;20.83;21.36;100369.00;4485804;31;34648;-73
2022/04/14 07:42:50;;;;;;;12.73;5.90;;;;;;;21.08;20.74;100366.53;4482536;31;32247;-73
2022/04/14 07:45:18;;;;;;;10.43;5.87;;;;;;;20.97;21.49;100373.09;4484735;31;33020;-72
2022/04/14 07:47:49;;;;;;;11.15;5.05;;;;;;;21.11;21.35;100366.00;4493150;31;33889;-73
2022/04/14 07:50:19;;;;;;;12.32;6.15;;;;;;;21.40;22.55;100372.22;4487197;31;33416;-73
2022/04/14 07:52:52;;;;;;;12.77;6.07;;;;;;;21.30;21.45;100375.75;4470487;31;32000;-73
2022/04/14 07:55:22;;;;;;;13.38;5.78;;;;;;;21.58;20.42;100370.97;4488610;31;34265;-73
2022/04/14 07:57:51;;;;;;;8.48;4.70;;;;;;;21.30;20.17;100370.16;4488343;31;33948;-71
2022/04/14 08:00:23;;;;;;;9.38;4.62;;;;;;;21.80;19.68;100365.31;4471951;32;33178;-73
2022/04/14 08:02:56;;;;;;;8.55;4.32;;;;;;;21.70;18.18;100361.31;4487216;31;34301;-72
2022/04/14 08:05:36;;;;;;;9.73;4.57;;;;;;;22.01;19.47;100370.81;4486972;31;34534;-73
2022/04/14 08:08:15;;;;;;;10.35;4.45;;;;;;;21.98;20.23;100370.50;4475489;32;34135;-72
2022/04/14 08:10:46;;;;;;;6.62;3.35;;;;;;;22.21;18.40;100369.28;4463794;31;31699;-72
2022/04/14 08:13:17;;;;;;;7.37;4.03;;;;;;;22.38;17.26;100369.94;4486480;31;33243;-72
2022/04/14 08:15:45;;;;;;;7.40;4.00;;;;;;;22.25;16.98;100374.06;4487559;31;34070;-72
2022/04/14 08:18:13;;;;;;;7.55;4.07;;;;;;;22.31;16.97;100381.38;4484748;31;33938;-72
2022/04/14 08:20:41;;;;;;;10.30;4.60;;;;;;;22.39;19.43;100377.22;4483953;31;31652;-72
2022/04/14 08:23:14;;;;;;;8.23;4.68;;;;;;;22.47;17.16;100375.87;4469872;31;33078;-72
2022/04/14 08:25:45;;;;;;;7.75;4.57;;;;;;;22.71;17.60;100379.09;4494367;31;34651;-72
2022/04/14 08:28:41;;;;;;;8.80;5.18;;;;;;;22.81;18.32;100367.94;4492961;31;34112;-73
2022/04/14 08:31:26;;;;;;;13.20;5.95;;;;;;;22.99;18.53;100375.87;4485190;31;33293;-72
2022/04/14 08:33:54;;;;;;;9.77;5.18;;;;;;;23.15;17.81;100368.38;4485363;32;34453;-72
2022/04/14 08:36:22;;;;;;;16.52;8.35;;;;;;;22.96;20.11;100359.63;4473066;32;34928;-72
2022/04/14 08:38:50;;;;;;;10.52;6.10;;;;;;;23.18;18.89;100370.62;4486222;31;33087;-72
2022/04/14 08:41:21;;;;;;;10.32;5.87;;;;;;;23.31;18.88;100376.53;4502606;31;32990;-72
2022/04/14 08:43:58;;;;;;;9.95;5.43;;;;;;;23.46;18.00;100364.50;4488123;31;33776;-72
2022/04/14 08:46:29;;;;;;;9.40;5.87;;;;;;;23.58;17.97;100369.88;4488262;31;34425;-72
2022/04/14 08:48:59;;;;;;;8.73;5.15;;;;;;;23.22;17.80;100368.94;4485096;32;34175;-72
2022/04/14 08:51:29;;;;;;;8.48;5.18;;;;;;;23.08;17.14;100365.81;4474549;31;31639;-72
2022/04/14 08:53:58;;;;;;;9.60;4.60;;;;;;;22.97;17.82;100373.34;4488933;31;33819;-72
2022/04/14 08:56:26;;;;;;;9.02;4.78;;;;;;;22.71;19.03;100377.13;4484039;32;34441;-72
2022/04/14 08:58:55;;;;;;;7.57;4.10;;;;;;;22.62;16.91;100376.81;4483848;32;33891;-72
2022/04/14 09:01:26;;;;;;;7.60;4.40;;;;;;;22.18;18.01;100375.41;4481742;32;107047;-72
2022/04/14 09:03:56;;;;;;;21.05;12.35;;;;;;;22.21;18.01;100370.09;4485812;32;34583;-71
2022/04/14 09:06:27;;;;;;;10.40;4.18;;;;;;;22.50;17.57;100369.75;4486745;31;34482;-71
2022/04/14 09:08:57;;;;;;;8.60;4.68;;;;;;;22.18;17.26;100373.44;4478434;31;33935;-72
2022/04/14 09:11:30;;;;;;;7.68;3.87;;;;;;;22.33;17.48;100376.34;4471625;32;31785;-71
2022/04/14 09:14:00;;;;;;;11.35;5.12;;;;;;;22.41;17.45;100375.00;4458203;32;32268;-71
2022/04/14 09:16:32;;;;;;;8.07;4.55;;;;;;;22.16;17.22;100372.87;4471400;32;34604;-71
2022/04/14 09:19:02;;;;;;;7.37;3.78;;;;;;;22.35;17.16;100378.88;4483898;32;34905;-71
2022/04/14 09:21:30;;;;;;;10.63;5.60;;;;;;;22.79;17.54;100368.22;4471074;32;34146;-71
2022/04/14 09:23:58;;;;;;;15.15;7.68;;;;;;;23.09;17.62;100367.50;4471244;31;33895;-72
2022/04/14 09:26:26;;;;;;;10.00;5.78;;;;;;;23.28;17.14;100363.09;4488147;31;35178;-71
2022/04/14 09:29:07;;;;;;;7.03;4.10;;;;;;;23.36;16.38;100360.84;4501804;31;33809;-71
2022/04/14 09:31:46;;;;;;;9.18;4.80;;;;;;;22.99;16.40;100376.72;4501660;31;33177;-73
2022/04/14 09:34:18;;;;;;;8.18;3.22;;;;;;;22.68;17.41;100370.13;4484772;31;33439;-72
2022/04/14 09:37:06;;;;;;;12.25;6.53;;;;;;;22.66;16.84;100365.91;4483542;31;35322;-72
2022/04/14 09:40:08;;;;;;;7.30;3.60;;;;;;;22.80;17.56;100369.91;4472172;32;34692;-73
2022/04/14 09:42:37;;;;;;;10.40;4.03;;;;;;;22.80;16.88;100360.66;4464914;31;31813;-73
2022/04/14 09:45:23;;;;;;;9.90;3.53;;;;;;;22.71;17.18;100362.28;4479284;31;33066;-72
2022/04/14 09:48:10;;;;;;;9.02;3.08;;;;;;;22.77;16.25;100356.41;4482381;31;35225;-72
2022/04/14 09:50:40;;;;;;;9.63;4.03;;;;;;;22.93;16.72;100348.97;4486238;31;33654;-73
2022/04/14 09:53:20;;;;;;;11.35;3.65;;;;;;;23.39;17.06;100355.53;4482614;32;33128;-72
2022/04/14 09:55:51;;;;;;;8.32;3.67;;;;;;;23.73;16.49;100349.44;4472294;32;33634;-73
2022/04/14 09:58:23;;;;;;;6.53;3.25;;;;;;;24.24;16.95;100344.59;4471478;32;33037;-72
2022/04/14 10:00:56;;;;;;;8.13;3.40;;;;;;;24.34;15.89;100338.16;4471496;32;33959;-71
2022/04/14 10:03:26;;;;;;;7.68;3.25;;;;;;;24.69;20.79;100345.66;4486078;32;33342;-72
2022/04/14 10:05:55;;;;;;;8.40;3.40;;;;;;;24.90;17.58;100345.25;4463104;31;33330;-72
2022/04/14 10:08:24;;;;;;;8.73;3.60;;;;;;;24.75;16.29;100336.03;4487339;31;34388;-71
2022/04/14 10:11:06;;;;;;;8.98;3.30;;;;;;;24.87;16.29;100331.78;4487070;31;32744;-72
2022/04/14 10:13:38;;;;;;;9.90;3.90;;;;;;;25.17;18.00;100332.78;4487216;31;33540;-72
2022/04/14 10:16:07;;;;;;;9.82;3.90;;;;;;;24.96;18.86;100318.00;4485495;31;34036;-72
2022/04/14 10:18:38;;;;;;;9.55;3.42;;;;;;;25.30;16.82;100325.69;4500881;31;35230;-73
2022/04/14 10:21:08;;;;;;;7.30;3.58;;;;;;;25.40;16.33;100326.44;4487150;31;33858;-72
2022/04/14 10:23:38;;;;;;;12.07;6.90;;;;;;;25.23;14.55;100326.00;4501860;31;33894;-72
2022/04/14 10:26:07;;;;;;;8.93;3.58;;;;;;;25.76;17.15;100315.78;4474134;31;32667;-72
2022/04/14 10:28:39;;;;;;;8.13;3.83;;;;;;;25.97;18.38;100313.62;4474532;31;34958;-72
2022/04/14 10:31:07;;;;;;;7.93;3.70;;;;;;;26.24;17.18;100315.88;4487439;31;33791;-73
2022/04/14 10:33:35;;;;;;;8.05;3.67;;;;;;;26.55;18.56;100314.44;4487411;31;33842;-73
2022/04/14 10:36:03;;;;;;;6.97;3.90;;;;;;;26.69;16.03;100308.91;4474339;31;33675;-73
2022/04/14 10:38:35;;;;;;;10.65;3.90;;;;;;;26.61;14.96;100303.12;4487363;31;34377;-73
2022/04/14 10:41:16;;;;;;;9.60;3.85;;;;;;;27.12;14.52;100306.94;4487434;31;34627;-73
2022/04/14 10:43:45;;;;;;;6.95;3.50;;;;;;;27.03;14.12;100302.28;4487199;31;34271;-74
2022/04/14 10:46:16;;;;;;;8.00;4.25;;;;;;;26.66;12.62;100294.56;4474491;32;34633;-73
2022/04/14 10:48:48;;;;;;;9.05;3.78;;;;;;;26.87;13.02;100296.84;4471355;32;32760;-71
2022/04/14 10:51:26;;;;;;;7.32;4.15;;;;;;;27.44;15.28;100296.84;4485737;32;33993;-70
2022/04/14 10:54:01;;;;;;;9.23;3.90;;;;;;;27.22;13.19;100297.50;4485958;32;33956;-71
2022/04/14 10:56:44;;;;;;;8.75;3.87;;;;;;;27.78;15.72;100291.81;4485686;32;33772;-71
2022/04/14 10:59:44;;;;;;;9.18;4.55;;;;;;;27.90;16.03;100296.97;4485901;32;35042;-70
2022/04/14 11:02:12;;;;;;;16.52;9.60;;;;;;;28.10;13.77;100288.09;4457420;32;33754;-71
2022/04/14 11:04:51;;;;;;;12.50;6.37;;;;;;;27.72;14.03;100289.38;4484791;32;34264;-70
2022/04/14 11:07:23;;;;;;;7.65;4.93;;;;;;;27.50;14.47;100293.66;4470407;31;33753;-71
2022/04/14 11:09:58;;;;;;;7.50;4.40;;;;;;;27.84;14.18;100298.19;4473222;31;34828;-70
2022/04/14 11:12:48;;;;;;;21.27;6.65;;;;;;;27.83;12.98;100288.91;4496403;31;34253;-70
2022/04/14 11:15:42;;;;;;;8.48;4.20;;;;;;;27.80;13.79;100288.69;4488579;31;33143;-70
2022/04/14 11:18:09;;;;;;;8.80;4.25;;;;;;;28.35;14.79;100274.69;4486889;31;33715;-70
2022/04/14 11:20:45;;;;;;;7.87;4.03;;;;;;;28.43;12.92;100274.78;4473991;31;32668;-71
2022/04/14 11:23:26;;;;;;;6.85;3.75;;;;;;;28.20;12.58;100275.78;4500769;31;33865;-70
2022/04/14 11:26:12;;;;;;;7.32;4.25;;;;;;;28.39;15.04;100268.09;4487450;31;33124;-70
2022/04/14 11:28:43;;;;;;;6.50;3.90;;;;;;;28.39;15.10;100264.44;4501008;31;33703;-71
2022/04/14 11:31:17;;;;;;;12.88;6.60;;;;;;;28.05;12.02;100262.81;4501063;31;34217;-70
2022/04/14 11:33:47;;;;;;;5.85;3.62;;;;;;;28.13;12.83;100270.53;4501212;31;33882;-70
2022/04/14 11:36:16;;;;;;;9.25;3.70;;;;;;;28.57;14.31;100249.38;4473668;31;33221;-70